Trans Adriatic — C6YQ3 — position and weather

sailwx.info

Track history (hours):
 
Tides and Currents Weather Stations Pressure Air Temp Water Temp Dewpoint Dewpoint Depression Visibility Wind Speed Wind Dir Waves Ship Positions

Trans Adriatic

Last reported at 2018-Aug-15 02:26 UTC. Time now 2018-Aug-15 03:00 UTC.
Position N 53°39' E 009°31'.

Length 123 m; draft 5.5 m.

Type: Tanker. MMSI: 311041700.

Date/timePositionNaut miles runAvg speedWind from/ knotsBaromVisibWave heightAir tempDewpointWater temp
2018-Aug-15 02:26N 53°39' E 009°31'0 0.0
2018-Aug-15 01:59N 53°39' E 009°31'0 0.0
2018-Aug-15 01:29N 53°39' E 009°31'0 0.0
2018-Aug-15 00:56N 53°39' E 009°31'0 0.0
2018-Aug-15 00:29N 53°39' E 009°31'0 0.0
2018-Aug-14 23:59N 53°39' E 009°31'0 0.0
2018-Aug-14 23:29N 53°39' E 009°31'0 0.0
2018-Aug-14 22:59N 53°39' E 009°31'0 0.0
2018-Aug-14 22:29N 53°39' E 009°31'0 0.0
2018-Aug-14 21:58N 53°39' E 009°31'0 0.0
2018-Aug-14 21:25N 53°39' E 009°31'0 0.0
2018-Aug-14 20:58N 53°39' E 009°31'0 0.0
2018-Aug-14 20:25N 53°39' E 009°31'0 0.0
2018-Aug-14 19:58N 53°39' E 009°31'0 0.0
2018-Aug-14 19:25N 53°39' E 009°31'0 0.0
2018-Aug-14 18:55N 53°39' E 009°31'0 0.0
2018-Aug-14 18:28N 53°39' E 009°31'0 0.0
2018-Aug-14 17:55N 53°39' E 009°31'0 0.0
2018-Aug-14 17:28N 53°39' E 009°31'0 0.0
2018-Aug-14 16:58N 53°39' E 009°31'0 0.0
2018-Aug-14 16:25N 53°39' E 009°31'0 0.0
2018-Aug-14 15:58N 53°39' E 009°31'0 0.0
2018-Aug-14 15:25N 53°39' E 009°31'0 0.0
2018-Aug-14 14:58N 53°39' E 009°31'0 0.0
2018-Aug-14 14:28N 53°39' E 009°31'0 0.0
2018-Aug-14 13:55N 53°39' E 009°31'0 0.0
2018-Aug-14 13:28N 53°39' E 009°31'0 0.0
2018-Aug-14 12:58N 53°39' E 009°31'0 0.0
2018-Aug-14 12:28N 53°39' E 009°31'0 0.0
2018-Aug-14 11:58N 53°39' E 009°31'0 0.0
2018-Aug-14 11:31N 53°39' E 009°31'2 4.3
2018-Aug-14 11:00N 53°41' E 009°30'3 5.2
2018-Aug-14 10:31N 53°43' E 009°28'4 7.5
2018-Aug-14 10:01N 53°46' E 009°24'5 9.2
2018-Aug-14 09:31N 53°50' E 009°20'5 9.6
2018-Aug-14 09:01N 53°53' E 009°13'4 8.9
2018-Aug-14 08:30N 53°52' E 009°05'5 9.3
2018-Aug-14 08:00N 53°51' E 008°58'4 9.0
2018-Aug-14 07:31N 53°50' E 008°51'4 8.4
2018-Aug-14 07:00N 53°52' E 008°44'4 8.2
2018-Aug-14 06:30N 53°55' E 008°40'4 8.7
2018-Aug-14 06:00N 53°58' E 008°34'5 9.5
2018-Aug-14 05:31N 53°59' E 008°26'510.5
2018-Aug-14 05:00N 53°59' E 008°17'511.1
2018-Aug-14 04:30N 53°59' E 008°08'3 5.3
2018-Aug-14 04:00N 54°01' E 008°06'3 4.5
2018-Aug-14 03:25N 54°03' E 008°10'0 0.1
2018-Aug-14 02:58N 54°03' E 008°10'0 0.1
2018-Aug-14 02:28N 54°03' E 008°10'0 0.1
2018-Aug-14 01:55N 54°03' E 008°10'0 0.0
2018-Aug-14 01:22N 54°03' E 008°10'0 0.0
2018-Aug-14 00:55N 54°03' E 008°10'0 0.1
2018-Aug-14 00:28N 54°03' E 008°10'0 0.0
2018-Aug-13 23:55N 54°03' E 008°10'0 0.0
2018-Aug-13 23:28N 54°03' E 008°10'0 0.0
2018-Aug-13 22:58N 54°03' E 008°10'0 0.0
2018-Aug-13 22:25N 54°03' E 008°10'0 0.0
2018-Aug-13 21:58N 54°03' E 008°10'0 0.0
2018-Aug-13 21:28N 54°03' E 008°10'0 0.0
2018-Aug-13 20:58N 54°03' E 008°10'0 0.0
2018-Aug-13 20:28N 54°03' E 008°10'0 0.1
2018-Aug-13 19:58N 54°03' E 008°10'0 0.1
2018-Aug-13 19:01N 54°03' E 008°10'0 0.0
2018-Aug-13 18:58N 54°03' E 008°10'0 0.1
2018-Aug-13 18:28N 54°03' E 008°10'0 0.0
2018-Aug-13 17:58N 54°03' E 008°10'0 0.0
2018-Aug-13 17:28N 54°03' E 008°10'0 0.0
2018-Aug-13 16:58N 54°03' E 008°10'0 0.0
2018-Aug-13 16:22N 54°03' E 008°10'0 0.0
2018-Aug-13 15:55N 54°03' E 008°10'0 0.0
2018-Aug-13 15:28N 54°03' E 008°10'0 0.0
2018-Aug-13 14:52N 54°03' E 008°10'0 0.0
2018-Aug-13 14:28N 54°03' E 008°10'0 0.1
2018-Aug-13 12:49N 54°03' E 008°10'0 0.0
2018-Aug-13 12:25N 54°03' E 008°10'0 0.1
2018-Aug-13 11:58N 54°03' E 008°10'0 0.0
2018-Aug-13 11:25N 54°03' E 008°10'0 0.0
2018-Aug-13 10:58N 54°03' E 008°10'0 0.0
2018-Aug-13 10:28N 54°03' E 008°10'0 0.0
2018-Aug-13 09:58N 54°03' E 008°10'0 0.0
2018-Aug-13 09:28N 54°03' E 008°10'0 0.0
2018-Aug-13 08:52N 54°03' E 008°10'0 0.0
2018-Aug-13 08:28N 54°03' E 008°10'0 0.1
2018-Aug-13 07:58N 54°03' E 008°10'0 0.1
2018-Aug-13 07:28N 54°03' E 008°10'0 0.1
2018-Aug-13 06:58N 54°03' E 008°10'0 0.0
2018-Aug-13 06:28N 54°03' E 008°10'0 0.0
2018-Aug-13 05:55N 54°03' E 008°10'0 0.0
2018-Aug-13 05:28N 54°03' E 008°10'0 0.0
2018-Aug-13 04:52N 54°03' E 008°10'0 0.0
2018-Aug-13 04:28N 54°03' E 008°10'0 0.0
2018-Aug-13 03:55N 54°03' E 008°10'0 0.0
2018-Aug-13 03:28N 54°03' E 008°10'0 0.0
2018-Aug-13 02:58N 54°03' E 008°10'0 0.0
2018-Aug-13 02:22N 54°03' E 008°10'0 0.0
2018-Aug-13 01:58N 54°03' E 008°10'0 0.1
2018-Aug-13 01:16N 54°03' E 008°10'0 0.1
2018-Aug-13 00:58N 54°03' E 008°10'0 0.0
2018-Aug-13 00:28N 54°03' E 008°10'0 0.0
2018-Aug-12 23:58N 54°03' E 008°10'0 0.0
2018-Aug-12 23:28N 54°03' E 008°10'0 0.0
2018-Aug-12 22:55N 54°03' E 008°10'0 0.0
2018-Aug-12 22:28N 54°03' E 008°10'0 0.0
2018-Aug-12 21:55N 54°03' E 008°10'0 0.0
2018-Aug-12 21:25N 54°03' E 008°10'0 0.0
2018-Aug-12 20:58N 54°03' E 008°10'0 0.0
2018-Aug-12 20:22N 54°03' E 008°10'0 0.0
2018-Aug-12 19:58N 54°03' E 008°10'0 0.0
2018-Aug-12 19:28N 54°03' E 008°10'0 0.0
2018-Aug-12 18:55N 54°03' E 008°10'0 0.1
2018-Aug-12 17:25N 54°03' E 008°10'0 0.0
2018-Aug-12 13:55N 54°03' E 008°10'0 0.0
2018-Aug-12 12:34N 54°03' E 008°10'0 0.0
2018-Aug-12 12:22N 54°03' E 008°10'0 0.1
2018-Aug-12 11:43N 54°03' E 008°10'0 0.0
2018-Aug-12 11:28N 54°03' E 008°10'0 0.0
2018-Aug-12 09:34N 54°03' E 008°10'0 0.0
2018-Aug-12 08:13N 54°03' E 008°10'0 0.0
2018-Aug-12 07:58N 54°03' E 008°10'0 0.0
2018-Aug-12 07:10N 54°03' E 008°10'0 0.0
2018-Aug-12 06:58N 54°03' E 008°10'0 0.0
2018-Aug-12 06:25N 54°03' E 008°10'0 0.0
2018-Aug-12 05:55N 54°03' E 008°10'0 0.0
2018-Aug-12 05:28N 54°03' E 008°10'0 0.0
2018-Aug-12 01:07N 54°03' E 008°10'0 0.1
2018-Aug-12 00:58N 54°03' E 008°10'0 0.0
2018-Aug-12 00:22N 54°03' E 008°10'0 0.0
2018-Aug-11 23:49N 54°03' E 008°10'0 0.0
2018-Aug-11 23:25N 54°03' E 008°10'0 0.0
2018-Aug-11 22:52N 54°03' E 008°10'0 0.0
2018-Aug-11 22:22N 54°03' E 008°10'0 0.0
2018-Aug-11 21:55N 54°03' E 008°10'0 0.1
2018-Aug-11 21:28N 54°03' E 008°10'0 0.0
2018-Aug-11 20:58N 54°03' E 008°10'0 0.0
2018-Aug-11 20:25N 54°03' E 008°10'0 0.0
2018-Aug-11 19:58N 54°03' E 008°10'0 0.0
2018-Aug-11 19:22N 54°03' E 008°10'0 0.0
2018-Aug-11 18:58N 54°03' E 008°10'0 0.0
2018-Aug-11 18:25N 54°03' E 008°10'0 0.0
2018-Aug-11 17:58N 54°03' E 008°10'0 0.1
2018-Aug-11 17:22N 54°03' E 008°10'0 0.0
2018-Aug-11 16:58N 54°03' E 008°10'0 0.0
2018-Aug-11 14:55N 54°03' E 008°10'0 0.0
2018-Aug-11 12:04N 54°03' E 008°10'0 0.1
2018-Aug-11 11:58N 54°03' E 008°10'0 0.0
2018-Aug-11 11:10N 54°03' E 008°10'0 0.1
2018-Aug-11 10:58N 54°03' E 008°10'0 0.0
2018-Aug-11 10:28N 54°03' E 008°10'0 0.0
2018-Aug-11 09:58N 54°03' E 008°10'0 0.0
2018-Aug-11 09:25N 54°03' E 008°10'0 0.0
2018-Aug-11 08:58N 54°03' E 008°10'0 0.0
2018-Aug-11 08:28N 54°03' E 008°10'0 0.0
2018-Aug-11 07:55N 54°03' E 008°10'0 0.1
2018-Aug-11 07:22N 54°03' E 008°10'0 0.0
2018-Aug-11 06:55N 54°03' E 008°10'0 0.0
2018-Aug-11 06:25N 54°03' E 008°10'0 0.0
2018-Aug-11 05:58N 54°03' E 008°10'0 0.0
2018-Aug-11 05:28N 54°03' E 008°10'0 0.0
2018-Aug-11 04:58N 54°03' E 008°10'0 0.0
2018-Aug-11 04:28N 54°03' E 008°10'0 0.0
2018-Aug-11 03:46N 54°03' E 008°10'0 0.1
2018-Aug-11 03:28N 54°03' E 008°10'0 0.0
2018-Aug-11 02:55N 54°03' E 008°10'0 0.0
2018-Aug-10 23:58N 54°03' E 008°10'0 0.0
2018-Aug-10 23:04N 54°03' E 008°10'0 0.0
2018-Aug-10 22:55N 54°03' E 008°10'0 0.2
2018-Aug-10 22:25N 54°03' E 008°10'0 0.1
2018-Aug-10 21:55N 54°03' E 008°10'0 0.1
2018-Aug-10 21:28N 54°03' E 008°10'0 0.1
2018-Aug-10 20:58N 54°03' E 008°10'0 0.0
2018-Aug-10 20:25N 54°03' E 008°10'0 0.0
2018-Aug-10 19:40N 54°03' E 008°10'0 0.0
2018-Aug-10 19:16N 54°03' E 008°10'0 0.0
2018-Aug-10 18:52N 54°03' E 008°10'0 0.0
2018-Aug-10 18:28N 54°03' E 008°10'0 0.0
2018-Aug-10 17:52N 54°03' E 008°10'0 0.0
2018-Aug-10 17:25N 54°03' E 008°10'0 0.0
2018-Aug-10 16:58N 54°03' E 008°10'0 0.1
2018-Aug-10 16:25N 54°03' E 008°10'0 0.0
2018-Aug-10 15:52N 54°03' E 008°10'0 0.0
2018-Aug-10 09:10N 54°03' E 008°10'0 0.0
2018-Aug-10 08:10N 54°03' E 008°10'0 0.0
2018-Aug-10 07:58N 54°03' E 008°10'0 0.2
2018-Aug-10 07:07N 54°03' E 008°10'0 2.1
2018-Aug-10 06:58N 54°03' E 008°10'0 0.8
2018-Aug-10 06:30N 54°02' E 008°10'0 0.6
2018-Aug-10 06:00N 54°03' E 008°10'0 0.5
2018-Aug-10 05:27N 54°03' E 008°09'1 1.0
2018-Aug-10 04:57N 54°03' E 008°10'1 1.2
2018-Aug-10 04:15N 54°03' E 008°09'0 0.0
2018-Aug-10 03:57N 54°03' E 008°09'0 0.0
2018-Aug-10 03:27N 54°03' E 008°09'0 0.0
2018-Aug-10 03:00N 54°03' E 008°09'0 0.0
2018-Aug-10 02:27N 54°03' E 008°09'0 0.1
2018-Aug-10 01:57N 54°03' E 008°09'0 0.0
2018-Aug-10 01:30N 54°03' E 008°09'0 0.0
2018-Aug-10 01:00N 54°03' E 008°09'0 0.0
2018-Aug-10 00:30N 54°03' E 008°09'0 0.1
2018-Aug-09 23:45N 54°03' E 008°09'0 0.0
2018-Aug-09 23:21N 54°03' E 008°09'0 0.0
2018-Aug-09 23:00N 54°03' E 008°09'0 0.1
2018-Aug-09 21:54N 54°03' E 008°09'0 0.0
2018-Aug-09 21:30N 54°03' E 008°09'0 0.0
2018-Aug-09 21:00N 54°03' E 008°09'0 0.0
2018-Aug-09 20:24N 54°03' E 008°09'0 0.0
2018-Aug-09 20:00N 54°03' E 008°09'0 0.1
2018-Aug-09 19:30N 54°03' E 008°09'0 0.0
2018-Aug-09 18:57N 54°03' E 008°09'0 0.1
2018-Aug-09 18:30N 54°03' E 008°09'0 0.2
2018-Aug-09 17:54N 54°03' E 008°08'0 0.2
2018-Aug-09 17:24N 54°03' E 008°08'0 0.0
2018-Aug-09 16:42N 54°03' E 008°08'0 0.1
2018-Aug-09 16:24N 54°03' E 008°08'0 0.0
2018-Aug-09 15:57N 54°03' E 008°08'0 0.0
2018-Aug-09 15:27N 54°03' E 008°08'0 0.0
2018-Aug-09 14:57N 54°03' E 008°08'0 0.1
2018-Aug-09 14:30N 54°03' E 008°09'0 0.0
2018-Aug-09 14:00N 54°03' E 008°08'0 0.0
2018-Aug-09 13:21N 54°03' E 008°08'0 0.0
2018-Aug-09 12:48N 54°03' E 008°09'0 0.1
2018-Aug-09 12:27N 54°03' E 008°09'0 0.0
2018-Aug-09 12:00N 54°03' E 008°09'0 0.0
2018-Aug-09 11:21N 54°03' E 008°09'0 0.0
2018-Aug-09 10:33N 54°03' E 008°09'0 0.1
2018-Aug-09 09:00N 54°03' E 008°09'0 0.1
2018-Aug-09 08:12N 54°03' E 008°09'0 0.0
2018-Aug-09 07:48N 54°03' E 008°09'0 0.0
2018-Aug-09 07:00N 54°03' E 008°09'0 0.0
2018-Aug-09 06:27N 54°03' E 008°09'0 0.0
2018-Aug-09 05:54N 54°03' E 008°09'0 0.0
2018-Aug-09 05:30N 54°03' E 008°09'0 0.0
2018-Aug-09 04:03N 54°03' E 008°09'0 0.3
2018-Aug-09 03:54N 54°03' E 008°09'0 0.1
2018-Aug-09 02:33N 54°03' E 008°09'0 0.1
2018-Aug-09 02:15N 54°03' E 008°09'0 0.0
2018-Aug-09 02:00N 54°03' E 008°09'0 0.0
2018-Aug-09 01:27N 54°03' E 008°09'0 0.0
2018-Aug-09 00:03N 54°03' E 008°09'0 0.0
2018-Aug-09 00:00N 54°03' E 008°09'0 0.0
2018-Aug-08 23:30N 54°03' E 008°09'0 0.1
2018-Aug-08 22:00N 54°03' E 008°09'0 0.0
2018-Aug-08 20:42N 54°03' E 008°09'0 0.0
2018-Aug-08 20:27N 54°03' E 008°09'0 0.0
2018-Aug-08 19:51N 54°03' E 008°09'0 0.1
2018-Aug-08 19:30N 54°03' E 008°09'0 0.0
2018-Aug-08 18:51N 54°03' E 008°09'0 0.0
2018-Aug-08 18:18N 54°03' E 008°09'0 0.0
2018-Aug-08 17:57N 54°03' E 008°09'0 0.0
2018-Aug-08 17:21N 54°03' E 008°09'0 0.0
2018-Aug-08 16:48N 54°03' E 008°09'0 0.1
2018-Aug-08 16:30N 54°03' E 008°09'0 0.0
2018-Aug-08 15:51N 54°03' E 008°09'0 0.1
2018-Aug-08 15:27N 54°03' E 008°09'0 0.0
2018-Aug-08 14:51N 54°03' E 008°09'0 0.0
2018-Aug-08 14:30N 54°03' E 008°09'0 0.0
2018-Aug-08 14:00N 54°03' E 008°09'0 0.2
2018-Aug-08 13:27N 54°03' E 008°09'0 0.0
2018-Aug-08 12:27N 54°03' E 008°08'0 0.0
2018-Aug-08 11:48N 54°03' E 008°08'0 0.0
2018-Aug-08 11:30N 54°03' E 008°08'0 0.0
2018-Aug-08 11:00N 54°03' E 008°08'0 0.0
2018-Aug-08 10:27N 54°03' E 008°08'0 0.0
2018-Aug-08 09:57N 54°03' E 008°09'0 0.0
2018-Aug-08 09:30N 54°03' E 008°08'0 0.0
2018-Aug-08 09:00N 54°03' E 008°08'0 0.0
2018-Aug-08 08:30N 54°03' E 008°08'0 0.1
2018-Aug-08 07:57N 54°03' E 008°09'0 0.1
2018-Aug-08 07:19N 54°03' E 008°09'0 0.2
2018-Aug-08 07:00N 54°03' E 008°09'0 0.0
2018-Aug-08 06:30N 54°03' E 008°09'0 0.0
2018-Aug-08 06:00N 54°03' E 008°09'0 0.0
2018-Aug-08 05:30N 54°03' E 008°09'0 0.0
2018-Aug-08 05:00N 54°03' E 008°09'0 0.0
2018-Aug-08 04:30N 54°03' E 008°09'0 0.0
2018-Aug-08 04:00N 54°03' E 008°09'0 0.0
2018-Aug-08 03:30N 54°03' E 008°09'0 0.2
2018-Aug-08 03:00N 54°03' E 008°09'0 0.3
2018-Aug-08 02:30N 54°03' E 008°08'0 0.1
2018-Aug-08 02:00N 54°03' E 008°08'0 0.0
2018-Aug-08 01:30N 54°03' E 008°08'0 0.0
2018-Aug-08 01:00N 54°03' E 008°08'0 0.0
2018-Aug-08 00:30N 54°03' E 008°08'0 0.0
2018-Aug-08 00:00N 54°03' E 008°08'0 0.0
2018-Aug-07 23:30N 54°03' E 008°08'0 0.0
2018-Aug-07 23:00N 54°03' E 008°08'0 0.0
2018-Aug-07 22:30N 54°03' E 008°08'0 0.0
2018-Aug-07 21:59N 54°03' E 008°08'0 0.0
2018-Aug-07 21:30N 54°03' E 008°08'0 0.0
2018-Aug-07 21:00N 54°03' E 008°08'0 0.0
2018-Aug-07 20:27N 54°03' E 008°08'0 0.0
2018-Aug-07 19:59N 54°03' E 008°08'0 0.1
2018-Aug-07 19:29N 54°03' E 008°08'87 9.7
2018-Aug-07 10:32N 54°05' E 005°40'411.3
2018-Aug-07 10:10N 54°04' E 005°33'211.1
2018-Aug-07 10:00N 54°04' E 005°30'611.1
2018-Aug-07 09:30N 54°03' E 005°21'611.2
2018-Aug-07 09:00N 54°03' E 005°12'611.3
2018-Aug-07 08:28N 54°02' E 005°01'511.3
2018-Aug-07 08:00N 54°01' E 004°53'510.8
2018-Aug-07 07:30N 53°60' E 004°44'611.5
2018-Aug-07 07:00N 53°55' E 004°37'711.6
2018-Aug-07 06:26N 53°51' E 004°29'611.7
2018-Aug-07 05:57N 53°47' E 004°22'611.8
2018-Aug-07 05:27N 53°43' E 004°14'512.0
2018-Aug-07 05:00N 53°40' E 004°07'612.1
2018-Aug-07 04:30N 53°36' E 003°59'712.2
2018-Aug-07 03:56N 53°32' E 003°50'611.8
2018-Aug-07 03:28N 53°27' E 003°44'512.0
2018-Aug-07 03:00N 53°22' E 003°41'612.1
2018-Aug-07 02:29N 53°17' E 003°36'612.2
2018-Aug-07 01:59N 53°11' E 003°32'812.3
2018-Aug-07 01:22N 53°04' E 003°27'512.5
2018-Aug-07 00:59N 52°60' E 003°24'612.8
2018-Aug-07 00:30N 52°54' E 003°20'612.9
2018-Aug-07 00:00N 52°48' E 003°15'713.1
2018-Aug-06 23:29N 52°42' E 003°10'913.2
2018-Aug-06 22:50N 52°34' E 003°04'413.5
2018-Aug-06 22:30N 52°30' E 003°00'1213.6
2018-Aug-06 21:36N 52°20' E 002°51'214.0
2018-Aug-06 21:28N 52°18' E 002°49'713.7
2018-Aug-06 20:56N 52°12' E 002°43'613.6
2018-Aug-06 20:30N 52°06' E 002°41'1726.6
2018-Aug-06 19:51N 51°52' E 002°59'821.0
2018-Aug-06 19:28N 51°56' E 002°48'612.0
2018-Aug-06 18:59N 51°53' E 002°55'612.1
2018-Aug-06 18:29N 51°51' E 003°05'511.2
2018-Aug-06 18:00N 51°48' E 003°11'611.8
2018-Aug-06 17:30N 51°43' E 003°17'611.4
2018-Aug-06 17:00N 51°38' E 003°22'510.8
2018-Aug-06 16:30N 51°33' E 003°25'5 9.9
2018-Aug-06 16:00N 51°29' E 003°30'4 8.9
2018-Aug-06 15:30N 51°26' E 003°35'5 9.2
2018-Aug-06 15:00N 51°25' E 003°42'611.4
2018-Aug-06 14:30N 51°21' E 003°48'612.4
2018-Aug-06 14:01N 51°24' E 003°57'3 6.3
2018-Aug-06 13:31N 51°23' E 004°02'611.8
2018-Aug-06 13:01N 51°24' E 004°12'612.0
2018-Aug-06 12:30N 51°19' E 004°16'3 6.0
2018-Aug-06 12:01N 51°17' E 004°20'0 0.0
2018-Aug-06 11:30N 51°17' E 004°20'0 0.0
2018-Aug-06 11:01N 51°17' E 004°20'1 2.2
2018-Aug-06 10:30N 51°18' E 004°20'0 0.0
2018-Aug-05 19:56N 51°18' E 004°20'0 0.0
2018-Aug-05 15:14N 51°18' E 004°20'  
Track history (hours):
 
Tides and Currents Weather Stations Pressure Air Temp Water Temp Dewpoint Dewpoint Depression Visibility Wind Speed Wind Dir Waves Ship Positions

Trans Adriatic

Last reported at 2018-Aug-15 02:26 UTC. Time now 2018-Aug-15 03:00 UTC.
Position N 53°39' E 009°31'.

Length 123 m; draft 5.5 m.

Type: Tanker. MMSI: 311041700.

Date/timePositionNaut miles runAvg speedWind from/ knotsBaromVisibWave heightAir tempDewpointWater temp
2018-Aug-15 02:26N 53°39' E 009°31'0 0.0
2018-Aug-15 01:59N 53°39' E 009°31'0 0.0
2018-Aug-15 01:29N 53°39' E 009°31'0 0.0
2018-Aug-15 00:56N 53°39' E 009°31'0 0.0
2018-Aug-15 00:29N 53°39' E 009°31'0 0.0
2018-Aug-14 23:59N 53°39' E 009°31'0 0.0
2018-Aug-14 23:29N 53°39' E 009°31'0 0.0
2018-Aug-14 22:59N 53°39' E 009°31'0 0.0
2018-Aug-14 22:29N 53°39' E 009°31'0 0.0
2018-Aug-14 21:58N 53°39' E 009°31'0 0.0
2018-Aug-14 21:25N 53°39' E 009°31'0 0.0
2018-Aug-14 20:58N 53°39' E 009°31'0 0.0
2018-Aug-14 20:25N 53°39' E 009°31'0 0.0
2018-Aug-14 19:58N 53°39' E 009°31'0 0.0
2018-Aug-14 19:25N 53°39' E 009°31'0 0.0
2018-Aug-14 18:55N 53°39' E 009°31'0 0.0
2018-Aug-14 18:28N 53°39' E 009°31'0 0.0
2018-Aug-14 17:55N 53°39' E 009°31'0 0.0
2018-Aug-14 17:28N 53°39' E 009°31'0 0.0
2018-Aug-14 16:58N 53°39' E 009°31'0 0.0
2018-Aug-14 16:25N 53°39' E 009°31'0 0.0
2018-Aug-14 15:58N 53°39' E 009°31'0 0.0
2018-Aug-14 15:25N 53°39' E 009°31'0 0.0
2018-Aug-14 14:58N 53°39' E 009°31'0 0.0
2018-Aug-14 14:28N 53°39' E 009°31'0 0.0
2018-Aug-14 13:55N 53°39' E 009°31'0 0.0
2018-Aug-14 13:28N 53°39' E 009°31'0 0.0
2018-Aug-14 12:58N 53°39' E 009°31'0 0.0
2018-Aug-14 12:28N 53°39' E 009°31'0 0.0
2018-Aug-14 11:58N 53°39' E 009°31'0 0.0
2018-Aug-14 11:31N 53°39' E 009°31'2 4.3
2018-Aug-14 11:00N 53°41' E 009°30'3 5.2
2018-Aug-14 10:31N 53°43' E 009°28'4 7.5
2018-Aug-14 10:01N 53°46' E 009°24'5 9.2
2018-Aug-14 09:31N 53°50' E 009°20'5 9.6
2018-Aug-14 09:01N 53°53' E 009°13'4 8.9
2018-Aug-14 08:30N 53°52' E 009°05'5 9.3
2018-Aug-14 08:00N 53°51' E 008°58'4 9.0
2018-Aug-14 07:31N 53°50' E 008°51'4 8.4
2018-Aug-14 07:00N 53°52' E 008°44'4 8.2
2018-Aug-14 06:30N 53°55' E 008°40'4 8.7
2018-Aug-14 06:00N 53°58' E 008°34'5 9.5
2018-Aug-14 05:31N 53°59' E 008°26'510.5
2018-Aug-14 05:00N 53°59' E 008°17'511.1
2018-Aug-14 04:30N 53°59' E 008°08'3 5.3
2018-Aug-14 04:00N 54°01' E 008°06'3 4.5
2018-Aug-14 03:25N 54°03' E 008°10'0 0.1
2018-Aug-14 02:58N 54°03' E 008°10'0 0.1
2018-Aug-14 02:28N 54°03' E 008°10'0 0.1
2018-Aug-14 01:55N 54°03' E 008°10'0 0.0
2018-Aug-14 01:22N 54°03' E 008°10'0 0.0
2018-Aug-14 00:55N 54°03' E 008°10'0 0.1
2018-Aug-14 00:28N 54°03' E 008°10'0 0.0
2018-Aug-13 23:55N 54°03' E 008°10'0 0.0
2018-Aug-13 23:28N 54°03' E 008°10'0 0.0
2018-Aug-13 22:58N 54°03' E 008°10'0 0.0
2018-Aug-13 22:25N 54°03' E 008°10'0 0.0
2018-Aug-13 21:58N 54°03' E 008°10'0 0.0
2018-Aug-13 21:28N 54°03' E 008°10'0 0.0
2018-Aug-13 20:58N 54°03' E 008°10'0 0.0
2018-Aug-13 20:28N 54°03' E 008°10'0 0.1
2018-Aug-13 19:58N 54°03' E 008°10'0 0.1
2018-Aug-13 19:01N 54°03' E 008°10'0 0.0
2018-Aug-13 18:58N 54°03' E 008°10'0 0.1
2018-Aug-13 18:28N 54°03' E 008°10'0 0.0
2018-Aug-13 17:58N 54°03' E 008°10'0 0.0
2018-Aug-13 17:28N 54°03' E 008°10'0 0.0
2018-Aug-13 16:58N 54°03' E 008°10'0 0.0
2018-Aug-13 16:22N 54°03' E 008°10'0 0.0
2018-Aug-13 15:55N 54°03' E 008°10'0 0.0
2018-Aug-13 15:28N 54°03' E 008°10'0 0.0
2018-Aug-13 14:52N 54°03' E 008°10'0 0.0
2018-Aug-13 14:28N 54°03' E 008°10'0 0.1
2018-Aug-13 12:49N 54°03' E 008°10'0 0.0
2018-Aug-13 12:25N 54°03' E 008°10'0 0.1
2018-Aug-13 11:58N 54°03' E 008°10'0 0.0
2018-Aug-13 11:25N 54°03' E 008°10'0 0.0
2018-Aug-13 10:58N 54°03' E 008°10'0 0.0
2018-Aug-13 10:28N 54°03' E 008°10'0 0.0
2018-Aug-13 09:58N 54°03' E 008°10'0 0.0
2018-Aug-13 09:28N 54°03' E 008°10'0 0.0
2018-Aug-13 08:52N 54°03' E 008°10'0 0.0
2018-Aug-13 08:28N 54°03' E 008°10'0 0.1
2018-Aug-13 07:58N 54°03' E 008°10'0 0.1
2018-Aug-13 07:28N 54°03' E 008°10'0 0.1
2018-Aug-13 06:58N 54°03' E 008°10'0 0.0
2018-Aug-13 06:28N 54°03' E 008°10'0 0.0
2018-Aug-13 05:55N 54°03' E 008°10'0 0.0
2018-Aug-13 05:28N 54°03' E 008°10'0 0.0
2018-Aug-13 04:52N 54°03' E 008°10'0 0.0
2018-Aug-13 04:28N 54°03' E 008°10'0 0.0
2018-Aug-13 03:55N 54°03' E 008°10'0 0.0
2018-Aug-13 03:28N 54°03' E 008°10'0 0.0
2018-Aug-13 02:58N 54°03' E 008°10'0 0.0
2018-Aug-13 02:22N 54°03' E 008°10'0 0.0
2018-Aug-13 01:58N 54°03' E 008°10'0 0.1
2018-Aug-13 01:16N 54°03' E 008°10'0 0.1
2018-Aug-13 00:58N 54°03' E 008°10'0 0.0
2018-Aug-13 00:28N 54°03' E 008°10'0 0.0
2018-Aug-12 23:58N 54°03' E 008°10'0 0.0
2018-Aug-12 23:28N 54°03' E 008°10'0 0.0
2018-Aug-12 22:55N 54°03' E 008°10'0 0.0
2018-Aug-12 22:28N 54°03' E 008°10'0 0.0
2018-Aug-12 21:55N 54°03' E 008°10'0 0.0
2018-Aug-12 21:25N 54°03' E 008°10'0 0.0
2018-Aug-12 20:58N 54°03' E 008°10'0 0.0
2018-Aug-12 20:22N 54°03' E 008°10'0 0.0
2018-Aug-12 19:58N 54°03' E 008°10'0 0.0
2018-Aug-12 19:28N 54°03' E 008°10'0 0.0
2018-Aug-12 18:55N 54°03' E 008°10'0 0.1
2018-Aug-12 17:25N 54°03' E 008°10'0 0.0
2018-Aug-12 13:55N 54°03' E 008°10'0 0.0
2018-Aug-12 12:34N 54°03' E 008°10'0 0.0
2018-Aug-12 12:22N 54°03' E 008°10'0 0.1
2018-Aug-12 11:43N 54°03' E 008°10'0 0.0
2018-Aug-12 11:28N 54°03' E 008°10'0 0.0
2018-Aug-12 09:34N 54°03' E 008°10'0 0.0
2018-Aug-12 08:13N 54°03' E 008°10'0 0.0
2018-Aug-12 07:58N 54°03' E 008°10'0 0.0
2018-Aug-12 07:10N 54°03' E 008°10'0 0.0
2018-Aug-12 06:58N 54°03' E 008°10'0 0.0
2018-Aug-12 06:25N 54°03' E 008°10'0 0.0
2018-Aug-12 05:55N 54°03' E 008°10'0 0.0
2018-Aug-12 05:28N 54°03' E 008°10'0 0.0
2018-Aug-12 01:07N 54°03' E 008°10'0 0.1
2018-Aug-12 00:58N 54°03' E 008°10'0 0.0
2018-Aug-12 00:22N 54°03' E 008°10'0 0.0
2018-Aug-11 23:49N 54°03' E 008°10'0 0.0
2018-Aug-11 23:25N 54°03' E 008°10'0 0.0
2018-Aug-11 22:52N 54°03' E 008°10'0 0.0
2018-Aug-11 22:22N 54°03' E 008°10'0 0.0
2018-Aug-11 21:55N 54°03' E 008°10'0 0.1
2018-Aug-11 21:28N 54°03' E 008°10'0 0.0
2018-Aug-11 20:58N 54°03' E 008°10'0 0.0
2018-Aug-11 20:25N 54°03' E 008°10'0 0.0
2018-Aug-11 19:58N 54°03' E 008°10'0 0.0
2018-Aug-11 19:22N 54°03' E 008°10'0 0.0
2018-Aug-11 18:58N 54°03' E 008°10'0 0.0
2018-Aug-11 18:25N 54°03' E 008°10'0 0.0
2018-Aug-11 17:58N 54°03' E 008°10'0 0.1
2018-Aug-11 17:22N 54°03' E 008°10'0 0.0
2018-Aug-11 16:58N 54°03' E 008°10'0 0.0
2018-Aug-11 14:55N 54°03' E 008°10'0 0.0
2018-Aug-11 12:04N 54°03' E 008°10'0 0.1
2018-Aug-11 11:58N 54°03' E 008°10'0 0.0
2018-Aug-11 11:10N 54°03' E 008°10'0 0.1
2018-Aug-11 10:58N 54°03' E 008°10'0 0.0
2018-Aug-11 10:28N 54°03' E 008°10'0 0.0
2018-Aug-11 09:58N 54°03' E 008°10'0 0.0
2018-Aug-11 09:25N 54°03' E 008°10'0 0.0
2018-Aug-11 08:58N 54°03' E 008°10'0 0.0
2018-Aug-11 08:28N 54°03' E 008°10'0 0.0
2018-Aug-11 07:55N 54°03' E 008°10'0 0.1
2018-Aug-11 07:22N 54°03' E 008°10'0 0.0
2018-Aug-11 06:55N 54°03' E 008°10'0 0.0
2018-Aug-11 06:25N 54°03' E 008°10'0 0.0
2018-Aug-11 05:58N 54°03' E 008°10'0 0.0
2018-Aug-11 05:28N 54°03' E 008°10'0 0.0
2018-Aug-11 04:58N 54°03' E 008°10'0 0.0
2018-Aug-11 04:28N 54°03' E 008°10'0 0.0
2018-Aug-11 03:46N 54°03' E 008°10'0 0.1
2018-Aug-11 03:28N 54°03' E 008°10'0 0.0
2018-Aug-11 02:55N 54°03' E 008°10'0 0.0
2018-Aug-10 23:58N 54°03' E 008°10'0 0.0
2018-Aug-10 23:04N 54°03' E 008°10'0 0.0
2018-Aug-10 22:55N 54°03' E 008°10'0 0.2
2018-Aug-10 22:25N 54°03' E 008°10'0 0.1
2018-Aug-10 21:55N 54°03' E 008°10'0 0.1
2018-Aug-10 21:28N 54°03' E 008°10'0 0.1
2018-Aug-10 20:58N 54°03' E 008°10'0 0.0
2018-Aug-10 20:25N 54°03' E 008°10'0 0.0
2018-Aug-10 19:40N 54°03' E 008°10'0 0.0
2018-Aug-10 19:16N 54°03' E 008°10'0 0.0
2018-Aug-10 18:52N 54°03' E 008°10'0 0.0
2018-Aug-10 18:28N 54°03' E 008°10'0 0.0
2018-Aug-10 17:52N 54°03' E 008°10'0 0.0
2018-Aug-10 17:25N 54°03' E 008°10'0 0.0
2018-Aug-10 16:58N 54°03' E 008°10'0 0.1
2018-Aug-10 16:25N 54°03' E 008°10'0 0.0
2018-Aug-10 15:52N 54°03' E 008°10'0 0.0
2018-Aug-10 09:10N 54°03' E 008°10'0 0.0
2018-Aug-10 08:10N 54°03' E 008°10'0 0.0
2018-Aug-10 07:58N 54°03' E 008°10'0 0.2
2018-Aug-10 07:07N 54°03' E 008°10'0 2.1
2018-Aug-10 06:58N 54°03' E 008°10'0 0.8
2018-Aug-10 06:30N 54°02' E 008°10'0 0.6
2018-Aug-10 06:00N 54°03' E 008°10'0 0.5
2018-Aug-10 05:27N 54°03' E 008°09'1 1.0
2018-Aug-10 04:57N 54°03' E 008°10'1 1.2
2018-Aug-10 04:15N 54°03' E 008°09'0 0.0
2018-Aug-10 03:57N 54°03' E 008°09'0 0.0
2018-Aug-10 03:27N 54°03' E 008°09'0 0.0
2018-Aug-10 03:00N 54°03' E 008°09'0 0.0
2018-Aug-10 02:27N 54°03' E 008°09'0 0.1
2018-Aug-10 01:57N 54°03' E 008°09'0 0.0
2018-Aug-10 01:30N 54°03' E 008°09'0 0.0
2018-Aug-10 01:00N 54°03' E 008°09'0 0.0
2018-Aug-10 00:30N 54°03' E 008°09'0 0.1
2018-Aug-09 23:45N 54°03' E 008°09'0 0.0
2018-Aug-09 23:21N 54°03' E 008°09'0 0.0
2018-Aug-09 23:00N 54°03' E 008°09'0 0.1
2018-Aug-09 21:54N 54°03' E 008°09'0 0.0
2018-Aug-09 21:30N 54°03' E 008°09'0 0.0
2018-Aug-09 21:00N 54°03' E 008°09'0 0.0
2018-Aug-09 20:24N 54°03' E 008°09'0 0.0
2018-Aug-09 20:00N 54°03' E 008°09'0 0.1
2018-Aug-09 19:30N 54°03' E 008°09'0 0.0
2018-Aug-09 18:57N 54°03' E 008°09'0 0.1
2018-Aug-09 18:30N 54°03' E 008°09'0 0.2
2018-Aug-09 17:54N 54°03' E 008°08'0 0.2
2018-Aug-09 17:24N 54°03' E 008°08'0 0.0
2018-Aug-09 16:42N 54°03' E 008°08'0 0.1
2018-Aug-09 16:24N 54°03' E 008°08'0 0.0
2018-Aug-09 15:57N 54°03' E 008°08'0 0.0
2018-Aug-09 15:27N 54°03' E 008°08'0 0.0
2018-Aug-09 14:57N 54°03' E 008°08'0 0.1
2018-Aug-09 14:30N 54°03' E 008°09'0 0.0
2018-Aug-09 14:00N 54°03' E 008°08'0 0.0
2018-Aug-09 13:21N 54°03' E 008°08'0 0.0
2018-Aug-09 12:48N 54°03' E 008°09'0 0.1
2018-Aug-09 12:27N 54°03' E 008°09'0 0.0
2018-Aug-09 12:00N 54°03' E 008°09'0 0.0
2018-Aug-09 11:21N 54°03' E 008°09'0 0.0
2018-Aug-09 10:33N 54°03' E 008°09'0 0.1
2018-Aug-09 09:00N 54°03' E 008°09'0 0.1
2018-Aug-09 08:12N 54°03' E 008°09'0 0.0
2018-Aug-09 07:48N 54°03' E 008°09'0 0.0
2018-Aug-09 07:00N 54°03' E 008°09'0 0.0
2018-Aug-09 06:27N 54°03' E 008°09'0 0.0
2018-Aug-09 05:54N 54°03' E 008°09'0 0.0
2018-Aug-09 05:30N 54°03' E 008°09'0 0.0
2018-Aug-09 04:03N 54°03' E 008°09'0 0.3
2018-Aug-09 03:54N 54°03' E 008°09'0 0.1
2018-Aug-09 02:33N 54°03' E 008°09'0 0.1
2018-Aug-09 02:15N 54°03' E 008°09'0 0.0
2018-Aug-09 02:00N 54°03' E 008°09'0 0.0
2018-Aug-09 01:27N 54°03' E 008°09'0 0.0
2018-Aug-09 00:03N 54°03' E 008°09'0 0.0
2018-Aug-09 00:00N 54°03' E 008°09'0 0.0
2018-Aug-08 23:30N 54°03' E 008°09'0 0.1
2018-Aug-08 22:00N 54°03' E 008°09'0 0.0
2018-Aug-08 20:42N 54°03' E 008°09'0 0.0
2018-Aug-08 20:27N 54°03' E 008°09'0 0.0
2018-Aug-08 19:51N 54°03' E 008°09'0 0.1
2018-Aug-08 19:30N 54°03' E 008°09'0 0.0
2018-Aug-08 18:51N 54°03' E 008°09'0 0.0
2018-Aug-08 18:18N 54°03' E 008°09'0 0.0
2018-Aug-08 17:57N 54°03' E 008°09'0 0.0
2018-Aug-08 17:21N 54°03' E 008°09'0 0.0
2018-Aug-08 16:48N 54°03' E 008°09'0 0.1
2018-Aug-08 16:30N 54°03' E 008°09'0 0.0
2018-Aug-08 15:51N 54°03' E 008°09'0 0.1
2018-Aug-08 15:27N 54°03' E 008°09'0 0.0
2018-Aug-08 14:51N 54°03' E 008°09'0 0.0
2018-Aug-08 14:30N 54°03' E 008°09'0 0.0
2018-Aug-08 14:00N 54°03' E 008°09'0 0.2
2018-Aug-08 13:27N 54°03' E 008°09'0 0.0
2018-Aug-08 12:27N 54°03' E 008°08'0 0.0
2018-Aug-08 11:48N 54°03' E 008°08'0 0.0
2018-Aug-08 11:30N 54°03' E 008°08'0 0.0
2018-Aug-08 11:00N 54°03' E 008°08'0 0.0
2018-Aug-08 10:27N 54°03' E 008°08'0 0.0
2018-Aug-08 09:57N 54°03' E 008°09'0 0.0
2018-Aug-08 09:30N 54°03' E 008°08'0 0.0
2018-Aug-08 09:00N 54°03' E 008°08'0 0.0
2018-Aug-08 08:30N 54°03' E 008°08'0 0.1
2018-Aug-08 07:57N 54°03' E 008°09'0 0.1
2018-Aug-08 07:19N 54°03' E 008°09'0 0.2
2018-Aug-08 07:00N 54°03' E 008°09'0 0.0
2018-Aug-08 06:30N 54°03' E 008°09'0 0.0
2018-Aug-08 06:00N 54°03' E 008°09'0 0.0
2018-Aug-08 05:30N 54°03' E 008°09'0 0.0
2018-Aug-08 05:00N 54°03' E 008°09'0 0.0
2018-Aug-08 04:30N 54°03' E 008°09'0 0.0
2018-Aug-08 04:00N 54°03' E 008°09'0 0.0
2018-Aug-08 03:30N 54°03' E 008°09'0 0.2
2018-Aug-08 03:00N 54°03' E 008°09'0 0.3
2018-Aug-08 02:30N 54°03' E 008°08'0 0.1
2018-Aug-08 02:00N 54°03' E 008°08'0 0.0
2018-Aug-08 01:30N 54°03' E 008°08'0 0.0
2018-Aug-08 01:00N 54°03' E 008°08'0 0.0
2018-Aug-08 00:30N 54°03' E 008°08'0 0.0
2018-Aug-08 00:00N 54°03' E 008°08'0 0.0
2018-Aug-07 23:30N 54°03' E 008°08'0 0.0
2018-Aug-07 23:00N 54°03' E 008°08'0 0.0
2018-Aug-07 22:30N 54°03' E 008°08'0 0.0
2018-Aug-07 21:59N 54°03' E 008°08'0 0.0
2018-Aug-07 21:30N 54°03' E 008°08'0 0.0
2018-Aug-07 21:00N 54°03' E 008°08'0 0.0
2018-Aug-07 20:27N 54°03' E 008°08'0 0.0
2018-Aug-07 19:59N 54°03' E 008°08'0 0.1
2018-Aug-07 19:29N 54°03' E 008°08'87 9.7
2018-Aug-07 10:32N 54°05' E 005°40'411.3
2018-Aug-07 10:10N 54°04' E 005°33'211.1
2018-Aug-07 10:00N 54°04' E 005°30'611.1
2018-Aug-07 09:30N 54°03' E 005°21'611.2
2018-Aug-07 09:00N 54°03' E 005°12'611.3
2018-Aug-07 08:28N 54°02' E 005°01'511.3
2018-Aug-07 08:00N 54°01' E 004°53'510.8
2018-Aug-07 07:30N 53°60' E 004°44'611.5
2018-Aug-07 07:00N 53°55' E 004°37'711.6
2018-Aug-07 06:26N 53°51' E 004°29'611.7
2018-Aug-07 05:57N 53°47' E 004°22'611.8
2018-Aug-07 05:27N 53°43' E 004°14'512.0
2018-Aug-07 05:00N 53°40' E 004°07'612.1
2018-Aug-07 04:30N 53°36' E 003°59'712.2
2018-Aug-07 03:56N 53°32' E 003°50'611.8
2018-Aug-07 03:28N 53°27' E 003°44'512.0
2018-Aug-07 03:00N 53°22' E 003°41'612.1
2018-Aug-07 02:29N 53°17' E 003°36'612.2
2018-Aug-07 01:59N 53°11' E 003°32'812.3
2018-Aug-07 01:22N 53°04' E 003°27'512.5
2018-Aug-07 00:59N 52°60' E 003°24'612.8
2018-Aug-07 00:30N 52°54' E 003°20'612.9
2018-Aug-07 00:00N 52°48' E 003°15'713.1
2018-Aug-06 23:29N 52°42' E 003°10'913.2
2018-Aug-06 22:50N 52°34' E 003°04'413.5
2018-Aug-06 22:30N 52°30' E 003°00'1213.6
2018-Aug-06 21:36N 52°20' E 002°51'214.0
2018-Aug-06 21:28N 52°18' E 002°49'713.7
2018-Aug-06 20:56N 52°12' E 002°43'613.6
2018-Aug-06 20:30N 52°06' E 002°41'1726.6
2018-Aug-06 19:51N 51°52' E 002°59'821.0
2018-Aug-06 19:28N 51°56' E 002°48'612.0
2018-Aug-06 18:59N 51°53' E 002°55'612.1
2018-Aug-06 18:29N 51°51' E 003°05'511.2
2018-Aug-06 18:00N 51°48' E 003°11'611.8
2018-Aug-06 17:30N 51°43' E 003°17'611.4
2018-Aug-06 17:00N 51°38' E 003°22'510.8
2018-Aug-06 16:30N 51°33' E 003°25'5 9.9
2018-Aug-06 16:00N 51°29' E 003°30'4 8.9
2018-Aug-06 15:30N 51°26' E 003°35'5 9.2
2018-Aug-06 15:00N 51°25' E 003°42'611.4
2018-Aug-06 14:30N 51°21' E 003°48'612.4
2018-Aug-06 14:01N 51°24' E 003°57'3 6.3
2018-Aug-06 13:31N 51°23' E 004°02'611.8
2018-Aug-06 13:01N 51°24' E 004°12'612.0
2018-Aug-06 12:30N 51°19' E 004°16'3 6.0
2018-Aug-06 12:01N 51°17' E 004°20'0 0.0
2018-Aug-06 11:30N 51°17' E 004°20'0 0.0
2018-Aug-06 11:01N 51°17' E 004°20'1 2.2
2018-Aug-06 10:30N 51°18' E 004°20'0 0.0
2018-Aug-05 19:56N 51°18' E 004°20'0 0.0
2018-Aug-05 15:14N 51°18' E 004°20'  

Dump ship's entire track history